New Concord, KY (42076)

12:06 AM CDT on October 20, 2014 (GMT -0500)
RAWS STILLY HOLLOW TN US | Change Station
CLOSE
Current Station
Personal Weather Station
Location: Dover, TN
Elevation: 580 ft
Nearby Weather Stations

Elev 580 ft 36.51 °N, 87.95 °W | Updated 40 minutes ago

Clear
Clear
48 °F
Feels Like 48 °F
N
0
Wind Variable Wind from North
Gusts 2.0 mph

Today
High -- | Low -- °F
--% Chance of Precip.
Yesterday
High -- | Low -- °F
Precip. -- in
7:04 AM 6:09 PM
Waning Crescent, 13% visible
Pressure 30.09 in
Visibility 10.0 miles
Clouds Scattered Clouds 2200 ft
Windchill 48 °F
Dew Point 47 °F
Humidity 97%
Rainfall 0.00 in
Snow Depth Not available.
UV 0 out of 12
Pollen 1.90 out of 12
Air Quality Not available.
Flu Activity Sporadic
METAR KCEY 200315Z AUTO 19003KT 10SM SCT022 10/08 A3009 RMK AO1

More Conditions Fewer Conditions

Pressure 30.09 in
Visibility 10.0 miles
Clouds Scattered Clouds 2200 ft
Windchill 48 °F
Dew Point 47 °F
Humidity 97%
Rainfall 0.00 in
Snow Depth Not available.
UV 0 out of 12
Pollen 1.90 out of 12
Air Quality Not available.
Flu Activity Sporadic
METAR KCEY 200315Z AUTO 19003KT 10SM SCT022 10/08 A3009 RMK AO1

More Conditions Fewer Conditions

10-Day Weather Forecast

Almanac

Astronomy

Oct. 20, 2014 Rise Set
Actual Time 7:04 AM CDT 6:09 PM CDT
Civil Twilight 6:37 AM CDT 6:35 PM CDT
Nautical Twilight 6:07 AM CDT 7:05 PM CDT
Astronomical Twilight 5:37 AM CDT 7:35 PM CDT
Moon 3:57 AM CDT 4:27 PM CDT
Length of Visible Light 11h 57m
Length of Day
11h 05m
Waning Crescent, 13% of the Moon is Illuminated
Today
Waning Crescent
Oct 23
New
Oct 30
First Quarter
Nov 6
Full
Nov 14
Last Quarter

Today's Extremes

State Highs State Lows

Community

WunderPhotos

Upload Photos

1,763,306 photos uploaded!

Nearby

Snow Depth

Station Depth Elevation
No new snow has been reported.

Earthquake Activity

City Distance Mag. Time & Date
No recent earthquake activity has been reported nearby.
Minimum magnitude displayed is 2.5.

Coastal Water Temperatures

Place Temperature
No Stations Reporting

Nearby Weather Stations